sensor_id;sensor_type;location;lat;lon;timestamp;P1;durP1;ratioP1;P2;durP2;ratioP2
42110;SDS011;27766;52.174;5.456;2022-07-23T00:02:07;5.28;;;2.60;;
42110;SDS011;27766;52.174;5.456;2022-07-23T00:04:34;4.38;;;2.63;;
42110;SDS011;27766;52.174;5.456;2022-07-23T00:07:02;3.17;;;2.00;;
42110;SDS011;27766;52.174;5.456;2022-07-23T00:09:29;3.20;;;2.40;;
42110;SDS011;27766;52.174;5.456;2022-07-23T00:11:58;6.30;;;3.53;;
42110;SDS011;27766;52.174;5.456;2022-07-23T00:14:25;7.93;;;2.90;;
42110;SDS011;27766;52.174;5.456;2022-07-23T00:16:52;3.28;;;2.35;;
42110;SDS011;27766;52.174;5.456;2022-07-23T00:19:20;3.75;;;3.00;;
42110;SDS011;27766;52.174;5.456;2022-07-23T00:21:47;4.22;;;3.35;;
42110;SDS011;27766;52.174;5.456;2022-07-23T00:24:14;4.53;;;3.30;;
42110;SDS011;27766;52.174;5.456;2022-07-23T00:26:41;4.68;;;3.42;;
42110;SDS011;27766;52.174;5.456;2022-07-23T00:29:08;4.80;;;2.95;;
42110;SDS011;27766;52.174;5.456;2022-07-23T00:31:37;4.43;;;3.00;;
42110;SDS011;27766;52.174;5.456;2022-07-23T00:34:04;4.63;;;2.92;;
42110;SDS011;27766;52.174;5.456;2022-07-23T00:36:31;3.67;;;2.75;;
42110;SDS011;27766;52.174;5.456;2022-07-23T00:38:59;4.15;;;3.47;;
42110;SDS011;27766;52.174;5.456;2022-07-23T00:41:28;6.13;;;3.33;;
42110;SDS011;27766;52.174;5.456;2022-07-23T00:43:55;4.22;;;3.45;;
42110;SDS011;27766;52.174;5.456;2022-07-23T00:46:22;4.82;;;3.28;;
42110;SDS011;27766;52.174;5.456;2022-07-23T00:48:49;7.90;;;3.50;;
42110;SDS011;27766;52.174;5.456;2022-07-23T00:51:17;3.85;;;3.10;;
42110;SDS011;27766;52.174;5.456;2022-07-23T00:53:44;3.65;;;2.80;;
42110;SDS011;27766;52.174;5.456;2022-07-23T00:56:12;4.57;;;3.50;;
42110;SDS011;27766;52.174;5.456;2022-07-23T00:58:39;5.65;;;2.95;;
42110;SDS011;27766;52.174;5.456;2022-07-23T01:01:11;4.75;;;3.30;;
42110;SDS011;27766;52.174;5.456;2022-07-23T01:03:38;4.70;;;3.15;;
42110;SDS011;27766;52.174;5.456;2022-07-23T01:06:07;9.52;;;3.90;;
42110;SDS011;27766;52.174;5.456;2022-07-23T01:08:34;3.92;;;2.97;;
42110;SDS011;27766;52.174;5.456;2022-07-23T01:11:02;5.07;;;3.78;;
42110;SDS011;27766;52.174;5.456;2022-07-23T01:13:30;4.43;;;3.35;;
42110;SDS011;27766;52.174;5.456;2022-07-23T01:15:58;4.82;;;3.72;;
42110;SDS011;27766;52.174;5.456;2022-07-23T01:18:25;4.40;;;3.60;;
42110;SDS011;27766;52.174;5.456;2022-07-23T01:20:52;4.68;;;3.70;;
42110;SDS011;27766;52.174;5.456;2022-07-23T01:23:19;4.20;;;3.38;;
42110;SDS011;27766;52.174;5.456;2022-07-23T01:25:51;3.92;;;3.40;;
42110;SDS011;27766;52.174;5.456;2022-07-23T01:28:19;4.88;;;4.07;;
42110;SDS011;27766;52.174;5.456;2022-07-23T01:30:46;4.60;;;3.78;;
42110;SDS011;27766;52.174;5.456;2022-07-23T01:33:14;4.70;;;3.85;;
42110;SDS011;27766;52.174;5.456;2022-07-23T01:35:42;5.22;;;3.10;;
42110;SDS011;27766;52.174;5.456;2022-07-23T01:38:09;6.35;;;3.90;;
42110;SDS011;27766;52.174;5.456;2022-07-23T01:40:38;5.38;;;4.15;;
42110;SDS011;27766;52.174;5.456;2022-07-23T01:43:08;4.90;;;4.05;;
42110;SDS011;27766;52.174;5.456;2022-07-23T01:45:37;7.70;;;3.92;;
42110;SDS011;27766;52.174;5.456;2022-07-23T01:48:04;6.40;;;4.53;;
42110;SDS011;27766;52.174;5.456;2022-07-23T01:50:37;6.68;;;4.30;;
42110;SDS011;27766;52.174;5.456;2022-07-23T01:53:04;7.10;;;4.13;;
42110;SDS011;27766;52.174;5.456;2022-07-23T01:55:31;9.07;;;4.45;;
42110;SDS011;27766;52.174;5.456;2022-07-23T01:57:59;4.63;;;3.78;;
42110;SDS011;27766;52.174;5.456;2022-07-23T02:00:26;5.20;;;4.13;;
42110;SDS011;27766;52.174;5.456;2022-07-23T02:02:53;8.43;;;3.70;;
42110;SDS011;27766;52.174;5.456;2022-07-23T02:05:21;4.72;;;3.53;;
42110;SDS011;27766;52.174;5.456;2022-07-23T02:07:48;4.60;;;3.90;;
42110;SDS011;27766;52.174;5.456;2022-07-23T02:10:16;5.13;;;4.18;;
42110;SDS011;27766;52.174;5.456;2022-07-23T02:12:43;6.53;;;4.28;;
42110;SDS011;27766;52.174;5.456;2022-07-23T02:15:11;8.52;;;4.00;;
42110;SDS011;27766;52.174;5.456;2022-07-23T02:17:41;8.80;;;3.92;;
42110;SDS011;27766;52.174;5.456;2022-07-23T02:20:09;5.70;;;3.78;;
42110;SDS011;27766;52.174;5.456;2022-07-23T02:22:38;7.15;;;4.47;;
42110;SDS011;27766;52.174;5.456;2022-07-23T02:25:07;8.23;;;3.97;;
42110;SDS011;27766;52.174;5.456;2022-07-23T02:27:37;5.70;;;4.47;;
42110;SDS011;27766;52.174;5.456;2022-07-23T02:30:04;7.93;;;4.22;;
42110;SDS011;27766;52.174;5.456;2022-07-23T02:32:32;5.03;;;4.07;;
42110;SDS011;27766;52.174;5.456;2022-07-23T02:34:59;5.70;;;3.90;;
42110;SDS011;27766;52.174;5.456;2022-07-23T02:37:27;7.50;;;4.05;;
42110;SDS011;27766;52.174;5.456;2022-07-23T02:39:55;4.95;;;4.45;;
42110;SDS011;27766;52.174;5.456;2022-07-23T02:42:22;5.15;;;4.40;;
42110;SDS011;27766;52.174;5.456;2022-07-23T02:44:50;4.75;;;4.07;;
42110;SDS011;27766;52.174;5.456;2022-07-23T02:47:18;5.28;;;4.57;;
42110;SDS011;27766;52.174;5.456;2022-07-23T02:49:45;7.03;;;4.35;;
42110;SDS011;27766;52.174;5.456;2022-07-23T02:52:12;5.90;;;4.55;;
42110;SDS011;27766;52.174;5.456;2022-07-23T02:54:41;6.65;;;4.18;;
42110;SDS011;27766;52.174;5.456;2022-07-23T02:57:08;5.68;;;4.40;;
42110;SDS011;27766;52.174;5.456;2022-07-23T02:59:37;4.45;;;4.00;;
42110;SDS011;27766;52.174;5.456;2022-07-23T03:02:04;5.32;;;4.18;;
42110;SDS011;27766;52.174;5.456;2022-07-23T03:04:32;4.82;;;4.32;;
42110;SDS011;27766;52.174;5.456;2022-07-23T03:07:00;7.03;;;4.57;;
42110;SDS011;27766;52.174;5.456;2022-07-23T03:09:29;6.78;;;4.65;;
42110;SDS011;27766;52.174;5.456;2022-07-23T03:11:56;4.78;;;4.28;;
42110;SDS011;27766;52.174;5.456;2022-07-23T03:14:23;6.22;;;4.65;;
42110;SDS011;27766;52.174;5.456;2022-07-23T03:16:50;5.15;;;4.07;;
42110;SDS011;27766;52.174;5.456;2022-07-23T03:19:18;10.48;;;5.05;;
42110;SDS011;27766;52.174;5.456;2022-07-23T03:21:45;6.35;;;4.65;;
42110;SDS011;27766;52.174;5.456;2022-07-23T03:24:12;7.50;;;4.85;;
42110;SDS011;27766;52.174;5.456;2022-07-23T03:26:39;6.68;;;4.50;;
42110;SDS011;27766;52.174;5.456;2022-07-23T03:29:08;4.90;;;4.10;;
42110;SDS011;27766;52.174;5.456;2022-07-23T03:31:37;5.53;;;4.10;;
42110;SDS011;27766;52.174;5.456;2022-07-23T03:34:04;5.43;;;4.65;;
42110;SDS011;27766;52.174;5.456;2022-07-23T03:36:32;9.60;;;4.47;;
42110;SDS011;27766;52.174;5.456;2022-07-23T03:38:59;4.55;;;4.03;;
42110;SDS011;27766;52.174;5.456;2022-07-23T03:41:28;4.85;;;4.20;;
42110;SDS011;27766;52.174;5.456;2022-07-23T03:43:56;11.55;;;4.63;;
42110;SDS011;27766;52.174;5.456;2022-07-23T03:46:23;6.88;;;4.35;;
42110;SDS011;27766;52.174;5.456;2022-07-23T03:48:50;7.18;;;4.20;;
42110;SDS011;27766;52.174;5.456;2022-07-23T03:51:24;5.65;;;4.07;;
42110;SDS011;27766;52.174;5.456;2022-07-23T03:53:51;10.68;;;5.05;;
42110;SDS011;27766;52.174;5.456;2022-07-23T03:56:18;5.60;;;4.13;;
42110;SDS011;27766;52.174;5.456;2022-07-23T03:58:45;6.35;;;4.18;;
42110;SDS011;27766;52.174;5.456;2022-07-23T04:01:12;7.30;;;4.65;;
42110;SDS011;27766;52.174;5.456;2022-07-23T04:03:41;6.35;;;4.57;;
42110;SDS011;27766;52.174;5.456;2022-07-23T04:06:10;7.22;;;4.38;;
42110;SDS011;27766;52.174;5.456;2022-07-23T04:08:41;6.32;;;4.68;;
42110;SDS011;27766;52.174;5.456;2022-07-23T04:11:08;7.47;;;4.85;;
42110;SDS011;27766;52.174;5.456;2022-07-23T04:13:37;7.07;;;5.18;;
42110;SDS011;27766;52.174;5.456;2022-07-23T04:16:04;6.50;;;4.63;;
42110;SDS011;27766;52.174;5.456;2022-07-23T04:18:32;10.13;;;4.70;;
42110;SDS011;27766;52.174;5.456;2022-07-23T04:20:59;6.03;;;4.55;;
42110;SDS011;27766;52.174;5.456;2022-07-23T04:23:26;5.63;;;4.70;;
42110;SDS011;27766;52.174;5.456;2022-07-23T04:25:54;7.28;;;4.15;;
42110;SDS011;27766;52.174;5.456;2022-07-23T04:28:22;4.97;;;3.78;;
42110;SDS011;27766;52.174;5.456;2022-07-23T04:30:49;5.68;;;5.05;;
42110;SDS011;27766;52.174;5.456;2022-07-23T04:33:17;5.78;;;4.13;;
42110;SDS011;27766;52.174;5.456;2022-07-23T04:35:44;6.63;;;4.15;;
42110;SDS011;27766;52.174;5.456;2022-07-23T04:38:11;4.75;;;4.25;;
42110;SDS011;27766;52.174;5.456;2022-07-23T04:40:38;4.75;;;4.22;;
42110;SDS011;27766;52.174;5.456;2022-07-23T04:43:07;6.47;;;5.00;;
42110;SDS011;27766;52.174;5.456;2022-07-23T04:45:34;5.40;;;4.57;;
42110;SDS011;27766;52.174;5.456;2022-07-23T04:48:02;11.45;;;5.38;;
42110;SDS011;27766;52.174;5.456;2022-07-23T04:50:29;8.88;;;5.53;;
42110;SDS011;27766;52.174;5.456;2022-07-23T04:52:57;6.65;;;5.50;;
42110;SDS011;27766;52.174;5.456;2022-07-23T04:55:24;9.40;;;5.90;;
42110;SDS011;27766;52.174;5.456;2022-07-23T04:57:51;7.15;;;5.55;;
42110;SDS011;27766;52.174;5.456;2022-07-23T05:00:18;6.38;;;5.50;;
42110;SDS011;27766;52.174;5.456;2022-07-23T05:02:45;7.82;;;5.88;;
42110;SDS011;27766;52.174;5.456;2022-07-23T05:05:12;7.85;;;5.90;;
42110;SDS011;27766;52.174;5.456;2022-07-23T05:07:41;10.65;;;6.07;;
42110;SDS011;27766;52.174;5.456;2022-07-23T05:10:08;8.30;;;6.55;;
42110;SDS011;27766;52.174;5.456;2022-07-23T05:12:37;9.35;;;6.28;;
42110;SDS011;27766;52.174;5.456;2022-07-23T05:15:04;8.13;;;6.30;;
42110;SDS011;27766;52.174;5.456;2022-07-23T05:17:31;7.82;;;6.22;;
42110;SDS011;27766;52.174;5.456;2022-07-23T05:19:59;8.07;;;6.75;;
42110;SDS011;27766;52.174;5.456;2022-07-23T05:22:27;7.82;;;5.45;;
42110;SDS011;27766;52.174;5.456;2022-07-23T05:24:54;10.48;;;6.05;;
42110;SDS011;27766;52.174;5.456;2022-07-23T05:27:22;7.90;;;6.25;;
42110;SDS011;27766;52.174;5.456;2022-07-23T05:29:49;6.97;;;5.72;;
42110;SDS011;27766;52.174;5.456;2022-07-23T05:32:16;8.45;;;6.55;;
42110;SDS011;27766;52.174;5.456;2022-07-23T05:34:43;6.88;;;5.72;;
42110;SDS011;27766;52.174;5.456;2022-07-23T05:37:11;8.60;;;6.25;;
42110;SDS011;27766;52.174;5.456;2022-07-23T05:39:39;12.45;;;6.00;;
42110;SDS011;27766;52.174;5.456;2022-07-23T05:42:08;8.82;;;5.45;;
42110;SDS011;27766;52.174;5.456;2022-07-23T05:44:38;6.65;;;5.55;;
42110;SDS011;27766;52.174;5.456;2022-07-23T05:47:05;6.25;;;4.80;;
42110;SDS011;27766;52.174;5.456;2022-07-23T05:49:32;11.95;;;4.97;;
42110;SDS011;27766;52.174;5.456;2022-07-23T05:52:03;6.50;;;4.47;;
42110;SDS011;27766;52.174;5.456;2022-07-23T05:54:30;8.98;;;5.40;;
42110;SDS011;27766;52.174;5.456;2022-07-23T05:57:00;8.80;;;4.13;;
42110;SDS011;27766;52.174;5.456;2022-07-23T05:59:27;3.97;;;3.53;;
42110;SDS011;27766;52.174;5.456;2022-07-23T06:01:54;3.83;;;2.90;;
42110;SDS011;27766;52.174;5.456;2022-07-23T06:04:22;3.38;;;3.08;;
42110;SDS011;27766;52.174;5.456;2022-07-23T06:06:49;7.00;;;3.90;;
42110;SDS011;27766;52.174;5.456;2022-07-23T06:09:16;3.80;;;3.35;;
42110;SDS011;27766;52.174;5.456;2022-07-23T06:11:43;4.65;;;3.97;;
42110;SDS011;27766;52.174;5.456;2022-07-23T06:14:11;4.38;;;3.78;;
42110;SDS011;27766;52.174;5.456;2022-07-23T06:16:38;9.27;;;4.72;;
42110;SDS011;27766;52.174;5.456;2022-07-23T06:19:07;8.43;;;3.80;;
42110;SDS011;27766;52.174;5.456;2022-07-23T06:21:34;4.65;;;4.07;;
42110;SDS011;27766;52.174;5.456;2022-07-23T06:24:12;5.50;;;4.03;;
42110;SDS011;27766;52.174;5.456;2022-07-23T06:26:41;5.25;;;4.22;;
42110;SDS011;27766;52.174;5.456;2022-07-23T06:29:08;5.70;;;3.88;;
42110;SDS011;27766;52.174;5.456;2022-07-23T06:31:37;6.10;;;4.10;;
42110;SDS011;27766;52.174;5.456;2022-07-23T06:34:04;5.22;;;3.85;;
42110;SDS011;27766;52.174;5.456;2022-07-23T06:36:32;6.07;;;4.60;;
42110;SDS011;27766;52.174;5.456;2022-07-23T06:38:59;6.28;;;3.60;;
42110;SDS011;27766;52.174;5.456;2022-07-23T06:41:27;5.18;;;3.58;;
42110;SDS011;27766;52.174;5.456;2022-07-23T06:43:54;4.20;;;3.25;;
42110;SDS011;27766;52.174;5.456;2022-07-23T06:46:21;5.68;;;3.53;;
42110;SDS011;27766;52.174;5.456;2022-07-23T06:48:49;7.47;;;4.05;;
42110;SDS011;27766;52.174;5.456;2022-07-23T06:51:16;8.13;;;3.78;;
42110;SDS011;27766;52.174;5.456;2022-07-23T06:53:43;5.72;;;3.03;;
42110;SDS011;27766;52.174;5.456;2022-07-23T06:56:11;3.78;;;3.15;;
42110;SDS011;27766;52.174;5.456;2022-07-23T06:58:38;4.35;;;2.47;;
42110;SDS011;27766;52.174;5.456;2022-07-23T07:01:07;4.35;;;2.70;;
42110;SDS011;27766;52.174;5.456;2022-07-23T07:03:34;4.25;;;2.95;;
42110;SDS011;27766;52.174;5.456;2022-07-23T07:06:02;3.72;;;1.55;;
42110;SDS011;27766;52.174;5.456;2022-07-23T07:08:29;1.40;;;0.85;;
42110;SDS011;27766;52.174;5.456;2022-07-23T07:10:56;10.00;;;1.75;;
42110;SDS011;27766;52.174;5.456;2022-07-23T07:13:23;4.35;;;1.15;;
42110;SDS011;27766;52.174;5.456;2022-07-23T07:15:50;1.05;;;0.68;;
42110;SDS011;27766;52.174;5.456;2022-07-23T07:18:18;1.88;;;0.88;;
42110;SDS011;27766;52.174;5.456;2022-07-23T07:20:45;3.20;;;1.15;;
42110;SDS011;27766;52.174;5.456;2022-07-23T07:23:12;3.75;;;1.02;;
42110;SDS011;27766;52.174;5.456;2022-07-23T07:25:42;4.00;;;1.40;;
42110;SDS011;27766;52.174;5.456;2022-07-23T07:28:09;1.35;;;0.95;;
42110;SDS011;27766;52.174;5.456;2022-07-23T07:30:38;2.53;;;1.23;;
42110;SDS011;27766;52.174;5.456;2022-07-23T07:33:07;8.05;;;1.50;;
42110;SDS011;27766;52.174;5.456;2022-07-23T07:35:34;2.75;;;1.67;;
42110;SDS011;27766;52.174;5.456;2022-07-23T07:38:02;2.35;;;1.10;;
42110;SDS011;27766;52.174;5.456;2022-07-23T07:40:29;1.73;;;1.35;;
42110;SDS011;27766;52.174;5.456;2022-07-23T07:43:00;3.92;;;1.85;;
42110;SDS011;27766;52.174;5.456;2022-07-23T07:45:28;3.03;;;2.05;;
42110;SDS011;27766;52.174;5.456;2022-07-23T07:47:56;1.83;;;1.52;;
42110;SDS011;27766;52.174;5.456;2022-07-23T07:50:24;2.92;;;1.70;;
42110;SDS011;27766;52.174;5.456;2022-07-23T07:52:51;3.22;;;1.40;;
42110;SDS011;27766;52.174;5.456;2022-07-23T07:55:18;1.75;;;1.30;;
42110;SDS011;27766;52.174;5.456;2022-07-23T07:57:46;2.30;;;1.17;;
42110;SDS011;27766;52.174;5.456;2022-07-23T08:00:15;2.33;;;1.05;;
42110;SDS011;27766;52.174;5.456;2022-07-23T08:02:43;3.63;;;1.65;;
42110;SDS011;27766;52.174;5.456;2022-07-23T08:05:13;1.38;;;1.10;;
42110;SDS011;27766;52.174;5.456;2022-07-23T08:07:41;2.75;;;1.40;;
42110;SDS011;27766;52.174;5.456;2022-07-23T08:10:09;1.70;;;1.00;;
42110;SDS011;27766;52.174;5.456;2022-07-23T08:15:20;2.33;;;1.25;;
42110;SDS011;27766;52.174;5.456;2022-07-23T08:17:48;1.85;;;0.95;;
42110;SDS011;27766;52.174;5.456;2022-07-23T08:20:17;3.60;;;1.25;;
42110;SDS011;27766;52.174;5.456;2022-07-23T08:22:50;3.47;;;1.70;;
42110;SDS011;27766;52.174;5.456;2022-07-23T08:25:22;5.45;;;1.55;;
42110;SDS011;27766;52.174;5.456;2022-07-23T08:27:50;2.75;;;1.30;;
42110;SDS011;27766;52.174;5.456;2022-07-23T08:30:19;3.28;;;1.40;;
42110;SDS011;27766;52.174;5.456;2022-07-23T08:32:50;3.38;;;1.25;;
42110;SDS011;27766;52.174;5.456;2022-07-23T08:37:59;1.77;;;1.20;;
42110;SDS011;27766;52.174;5.456;2022-07-23T08:40:31;1.77;;;0.95;;
42110;SDS011;27766;52.174;5.456;2022-07-23T08:43:00;1.67;;;1.00;;
42110;SDS011;27766;52.174;5.456;2022-07-23T08:45:35;4.50;;;1.35;;
42110;SDS011;27766;52.174;5.456;2022-07-23T08:48:05;1.95;;;1.10;;
42110;SDS011;27766;52.174;5.456;2022-07-23T08:50:35;2.65;;;1.13;;
42110;SDS011;27766;52.174;5.456;2022-07-23T08:53:07;3.28;;;1.35;;
42110;SDS011;27766;52.174;5.456;2022-07-23T08:55:35;2.72;;;1.13;;
42110;SDS011;27766;52.174;5.456;2022-07-23T08:58:03;2.58;;;1.20;;
42110;SDS011;27766;52.174;5.456;2022-07-23T09:00:30;3.33;;;1.30;;
42110;SDS011;27766;52.174;5.456;2022-07-23T09:02:58;1.90;;;1.00;;
42110;SDS011;27766;52.174;5.456;2022-07-23T09:05:25;3.33;;;1.33;;
42110;SDS011;27766;52.174;5.456;2022-07-23T09:08:12;3.33;;;1.05;;
42110;SDS011;27766;52.174;5.456;2022-07-23T09:13:27;3.42;;;0.68;;
42110;SDS011;27766;52.174;5.456;2022-07-23T09:16:05;2.22;;;0.75;;
42110;SDS011;27766;52.174;5.456;2022-07-23T09:18:44;3.78;;;1.10;;
42110;SDS011;27766;52.174;5.456;2022-07-23T09:21:23;1.83;;;0.93;;
42110;SDS011;27766;52.174;5.456;2022-07-23T09:23:53;2.03;;;0.80;;
42110;SDS011;27766;52.174;5.456;2022-07-23T09:26:23;2.67;;;1.00;;
42110;SDS011;27766;52.174;5.456;2022-07-23T09:29:22;2.70;;;1.17;;
42110;SDS011;27766;52.174;5.456;2022-07-23T09:31:52;2.55;;;0.90;;
42110;SDS011;27766;52.174;5.456;2022-07-23T09:34:27;1.45;;;1.05;;
42110;SDS011;27766;52.174;5.456;2022-07-23T09:37:10;1.20;;;0.80;;
42110;SDS011;27766;52.174;5.456;2022-07-23T09:39:42;1.80;;;1.08;;
42110;SDS011;27766;52.174;5.456;2022-07-23T09:42:15;3.83;;;1.27;;
42110;SDS011;27766;52.174;5.456;2022-07-23T09:44:48;8.00;;;1.23;;
42110;SDS011;27766;52.174;5.456;2022-07-23T09:47:17;2.83;;;1.15;;
42110;SDS011;27766;52.174;5.456;2022-07-23T09:49:57;4.18;;;1.00;;
42110;SDS011;27766;52.174;5.456;2022-07-23T09:52:28;2.53;;;1.23;;
42110;SDS011;27766;52.174;5.456;2022-07-23T09:55:02;1.83;;;0.75;;
42110;SDS011;27766;52.174;5.456;2022-07-23T09:57:31;1.63;;;1.02;;
42110;SDS011;27766;52.174;5.456;2022-07-23T10:00:05;2.80;;;0.88;;
42110;SDS011;27766;52.174;5.456;2022-07-23T10:02:37;2.60;;;0.68;;
42110;SDS011;27766;52.174;5.456;2022-07-23T10:05:08;2.92;;;1.10;;
42110;SDS011;27766;52.174;5.456;2022-07-23T10:07:38;1.50;;;0.80;;
42110;SDS011;27766;52.174;5.456;2022-07-23T10:10:08;3.47;;;1.30;;
42110;SDS011;27766;52.174;5.456;2022-07-23T10:12:43;2.67;;;0.80;;
42110;SDS011;27766;52.174;5.456;2022-07-23T10:15:29;0.93;;;0.73;;
42110;SDS011;27766;52.174;5.456;2022-07-23T10:17:56;1.58;;;0.70;;
42110;SDS011;27766;52.174;5.456;2022-07-23T10:20:24;2.47;;;0.90;;
42110;SDS011;27766;52.174;5.456;2022-07-23T10:25:59;3.80;;;0.90;;
42110;SDS011;27766;52.174;5.456;2022-07-23T10:28:52;1.95;;;0.75;;
42110;SDS011;27766;52.174;5.456;2022-07-23T10:37:51;1.23;;;0.68;;
42110;SDS011;27766;52.174;5.456;2022-07-23T10:40:29;2.33;;;0.82;;
42110;SDS011;27766;52.174;5.456;2022-07-23T10:42:59;1.58;;;0.80;;
42110;SDS011;27766;52.174;5.456;2022-07-23T10:48:14;7.00;;;0.93;;
42110;SDS011;27766;52.174;5.456;2022-07-23T10:50:42;2.17;;;0.95;;
42110;SDS011;27766;52.174;5.456;2022-07-23T10:53:12;3.10;;;1.00;;
42110;SDS011;27766;52.174;5.456;2022-07-23T10:55:43;1.38;;;0.68;;
42110;SDS011;27766;52.174;5.456;2022-07-23T10:58:17;1.15;;;0.82;;
42110;SDS011;27766;52.174;5.456;2022-07-23T11:00:48;2.65;;;1.17;;
42110;SDS011;27766;52.174;5.456;2022-07-23T11:03:29;0.98;;;0.73;;
42110;SDS011;27766;52.174;5.456;2022-07-23T11:05:59;1.67;;;0.90;;
42110;SDS011;27766;52.174;5.456;2022-07-23T11:08:27;4.05;;;0.80;;
42110;SDS011;27766;52.174;5.456;2022-07-23T11:13:29;1.02;;;0.82;;
42110;SDS011;27766;52.174;5.456;2022-07-23T11:16:03;1.08;;;0.63;;
42110;SDS011;27766;52.174;5.456;2022-07-23T11:32:07;1.05;;;0.77;;
42110;SDS011;27766;52.174;5.456;2022-07-23T11:34:44;0.77;;;0.70;;
42110;SDS011;27766;52.174;5.456;2022-07-23T11:37:32;1.15;;;0.80;;
42110;SDS011;27766;52.174;5.456;2022-07-23T11:40:04;1.77;;;0.98;;
42110;SDS011;27766;52.174;5.456;2022-07-23T11:42:39;1.35;;;0.73;;
42110;SDS011;27766;52.174;5.456;2022-07-23T11:45:08;1.15;;;0.82;;
42110;SDS011;27766;52.174;5.456;2022-07-23T11:47:37;1.33;;;1.00;;
42110;SDS011;27766;52.174;5.456;2022-07-23T11:50:05;1.73;;;1.13;;
42110;SDS011;27766;52.174;5.456;2022-07-23T11:52:33;0.82;;;0.68;;
42110;SDS011;27766;52.174;5.456;2022-07-23T11:55:02;0.90;;;0.52;;
42110;SDS011;27766;52.174;5.456;2022-07-23T11:57:33;0.90;;;0.75;;
42110;SDS011;27766;52.174;5.456;2022-07-23T12:00:05;3.15;;;0.90;;
42110;SDS011;27766;52.174;5.456;2022-07-23T12:02:33;3.10;;;1.52;;
42110;SDS011;27766;52.174;5.456;2022-07-23T12:05:00;1.42;;;0.90;;
42110;SDS011;27766;52.174;5.456;2022-07-23T12:07:39;5.28;;;0.90;;
42110;SDS011;27766;52.174;5.456;2022-07-23T12:12:45;2.63;;;1.33;;
42110;SDS011;27766;52.174;5.456;2022-07-23T12:15:17;2.13;;;0.73;;
42110;SDS011;27766;52.174;5.456;2022-07-23T12:17:46;1.38;;;0.82;;
42110;SDS011;27766;52.174;5.456;2022-07-23T12:20:18;0.88;;;0.80;;
42110;SDS011;27766;52.174;5.456;2022-07-23T12:22:49;1.60;;;0.98;;
42110;SDS011;27766;52.174;5.456;2022-07-23T12:25:22;1.95;;;1.08;;
42110;SDS011;27766;52.174;5.456;2022-07-23T12:33:10;2.15;;;0.90;;
42110;SDS011;27766;52.174;5.456;2022-07-23T12:35:42;4.47;;;1.00;;
42110;SDS011;27766;52.174;5.456;2022-07-23T12:38:12;1.98;;;0.68;;
42110;SDS011;27766;52.174;5.456;2022-07-23T12:40:47;2.38;;;1.00;;
42110;SDS011;27766;52.174;5.456;2022-07-23T12:43:28;4.53;;;1.08;;
42110;SDS011;27766;52.174;5.456;2022-07-23T12:46:08;1.42;;;1.02;;
42110;SDS011;27766;52.174;5.456;2022-07-23T12:48:38;5.18;;;0.90;;
42110;SDS011;27766;52.174;5.456;2022-07-23T12:51:36;2.67;;;1.23;;
42110;SDS011;27766;52.174;5.456;2022-07-23T12:54:12;1.42;;;0.70;;
42110;SDS011;27766;52.174;5.456;2022-07-23T12:56:44;1.23;;;0.90;;
42110;SDS011;27766;52.174;5.456;2022-07-23T12:59:31;0.88;;;0.80;;
42110;SDS011;27766;52.174;5.456;2022-07-23T13:02:00;8.18;;;1.10;;
42110;SDS011;27766;52.174;5.456;2022-07-23T13:04:28;8.10;;;1.17;;
42110;SDS011;27766;52.174;5.456;2022-07-23T13:06:59;4.78;;;1.10;;
42110;SDS011;27766;52.174;5.456;2022-07-23T13:09:31;1.30;;;0.95;;
42110;SDS011;27766;52.174;5.456;2022-07-23T13:12:08;1.67;;;1.17;;
42110;SDS011;27766;52.174;5.456;2022-07-23T13:14:38;4.00;;;1.00;;
42110;SDS011;27766;52.174;5.456;2022-07-23T13:17:08;2.10;;;1.00;;
42110;SDS011;27766;52.174;5.456;2022-07-23T13:19:36;1.85;;;1.00;;
42110;SDS011;27766;52.174;5.456;2022-07-23T13:22:03;1.65;;;1.20;;
42110;SDS011;27766;52.174;5.456;2022-07-23T13:24:37;2.45;;;1.02;;
42110;SDS011;27766;52.174;5.456;2022-07-23T13:27:05;1.13;;;0.90;;
42110;SDS011;27766;52.174;5.456;2022-07-23T13:29:37;3.03;;;1.33;;
42110;SDS011;27766;52.174;5.456;2022-07-23T13:32:04;1.15;;;0.70;;
42110;SDS011;27766;52.174;5.456;2022-07-23T13:34:39;1.95;;;1.20;;
42110;SDS011;27766;52.174;5.456;2022-07-23T13:37:09;1.10;;;0.73;;
42110;SDS011;27766;52.174;5.456;2022-07-23T13:39:37;1.58;;;0.88;;
42110;SDS011;27766;52.174;5.456;2022-07-23T13:42:24;1.75;;;1.30;;
42110;SDS011;27766;52.174;5.456;2022-07-23T13:44:52;2.53;;;1.00;;
42110;SDS011;27766;52.174;5.456;2022-07-23T13:47:19;5.82;;;1.08;;
42110;SDS011;27766;52.174;5.456;2022-07-23T13:49:46;3.20;;;1.30;;
42110;SDS011;27766;52.174;5.456;2022-07-23T13:52:14;3.00;;;1.63;;
42110;SDS011;27766;52.174;5.456;2022-07-23T13:54:42;1.00;;;0.90;;
42110;SDS011;27766;52.174;5.456;2022-07-23T13:57:09;5.07;;;0.85;;
42110;SDS011;27766;52.174;5.456;2022-07-23T13:59:39;1.27;;;0.98;;
42110;SDS011;27766;52.174;5.456;2022-07-23T14:02:09;1.85;;;0.90;;
42110;SDS011;27766;52.174;5.456;2022-07-23T14:04:51;3.05;;;0.90;;
42110;SDS011;27766;52.174;5.456;2022-07-23T14:07:18;2.72;;;1.55;;
42110;SDS011;27766;52.174;5.456;2022-07-23T14:09:46;2.42;;;1.25;;
42110;SDS011;27766;52.174;5.456;2022-07-23T14:12:13;8.35;;;1.40;;
42110;SDS011;27766;52.174;5.456;2022-07-23T14:14:43;2.63;;;1.17;;
42110;SDS011;27766;52.174;5.456;2022-07-23T14:17:11;1.63;;;0.93;;
42110;SDS011;27766;52.174;5.456;2022-07-23T14:19:39;3.53;;;1.23;;
42110;SDS011;27766;52.174;5.456;2022-07-23T14:22:08;2.78;;;1.35;;
42110;SDS011;27766;52.174;5.456;2022-07-23T14:24:39;2.03;;;0.90;;
42110;SDS011;27766;52.174;5.456;2022-07-23T14:27:07;2.55;;;1.30;;
42110;SDS011;27766;52.174;5.456;2022-07-23T14:29:38;4.82;;;1.15;;
42110;SDS011;27766;52.174;5.456;2022-07-23T14:32:05;1.17;;;0.90;;
42110;SDS011;27766;52.174;5.456;2022-07-23T14:34:33;5.00;;;1.13;;
42110;SDS011;27766;52.174;5.456;2022-07-23T14:37:04;3.28;;;1.10;;
42110;SDS011;27766;52.174;5.456;2022-07-23T14:39:31;4.15;;;1.20;;
42110;SDS011;27766;52.174;5.456;2022-07-23T14:41:59;1.30;;;1.05;;
42110;SDS011;27766;52.174;5.456;2022-07-23T14:44:27;2.55;;;1.33;;
42110;SDS011;27766;52.174;5.456;2022-07-23T14:46:54;2.30;;;1.33;;
42110;SDS011;27766;52.174;5.456;2022-07-23T14:49:22;2.38;;;1.75;;
42110;SDS011;27766;52.174;5.456;2022-07-23T14:51:53;2.10;;;1.13;;
42110;SDS011;27766;52.174;5.456;2022-07-23T14:54:22;3.92;;;0.98;;
42110;SDS011;27766;52.174;5.456;2022-07-23T14:56:50;3.85;;;1.20;;
42110;SDS011;27766;52.174;5.456;2022-07-23T14:59:18;1.10;;;0.73;;
42110;SDS011;27766;52.174;5.456;2022-07-23T15:01:45;1.10;;;0.90;;
42110;SDS011;27766;52.174;5.456;2022-07-23T15:04:12;2.28;;;0.98;;
42110;SDS011;27766;52.174;5.456;2022-07-23T15:06:59;2.40;;;0.93;;
42110;SDS011;27766;52.174;5.456;2022-07-23T15:09:26;3.83;;;1.13;;
42110;SDS011;27766;52.174;5.456;2022-07-23T15:11:55;2.53;;;0.93;;
42110;SDS011;27766;52.174;5.456;2022-07-23T15:14:23;3.90;;;1.35;;
42110;SDS011;27766;52.174;5.456;2022-07-23T15:16:57;2.95;;;1.25;;
42110;SDS011;27766;52.174;5.456;2022-07-23T15:19:25;6.35;;;1.20;;
42110;SDS011;27766;52.174;5.456;2022-07-23T15:21:56;4.97;;;1.00;;
42110;SDS011;27766;52.174;5.456;2022-07-23T15:24:24;5.28;;;1.50;;
42110;SDS011;27766;52.174;5.456;2022-07-23T15:26:51;1.48;;;1.20;;
42110;SDS011;27766;52.174;5.456;2022-07-23T15:29:18;2.63;;;1.75;;
42110;SDS011;27766;52.174;5.456;2022-07-23T15:31:47;3.08;;;1.40;;
42110;SDS011;27766;52.174;5.456;2022-07-23T15:34:25;1.20;;;0.98;;
42110;SDS011;27766;52.174;5.456;2022-07-23T15:36:53;2.78;;;1.45;;
42110;SDS011;27766;52.174;5.456;2022-07-23T15:39:21;1.70;;;0.95;;
42110;SDS011;27766;52.174;5.456;2022-07-23T15:41:48;2.95;;;1.13;;
42110;SDS011;27766;52.174;5.456;2022-07-23T15:44:15;1.88;;;1.10;;
42110;SDS011;27766;52.174;5.456;2022-07-23T15:46:56;3.22;;;1.48;;